sensor_id;sensor_type;location;lat;lon;timestamp;pressure;altitude;pressure_sealevel;temperature;humidity
4576;BME280;2300;51.874;8.430;2023-03-15T00:01:35;100193.63;;;0.53;81.28
4576;BME280;2300;51.874;8.430;2023-03-15T00:04:02;100193.84;;;0.52;81.42
4576;BME280;2300;51.874;8.430;2023-03-15T00:06:30;100200.72;;;0.54;81.58
4576;BME280;2300;51.874;8.430;2023-03-15T00:08:58;100201.03;;;0.59;81.65
4576;BME280;2300;51.874;8.430;2023-03-15T00:11:26;100213.16;;;0.63;81.21
4576;BME280;2300;51.874;8.430;2023-03-15T00:13:55;100209.75;;;0.70;81.58
4576;BME280;2300;51.874;8.430;2023-03-15T00:16:23;100215.75;;;0.80;81.15
4576;BME280;2300;51.874;8.430;2023-03-15T00:18:51;100225.59;;;0.95;80.82
4576;BME280;2300;51.874;8.430;2023-03-15T00:21:18;100231.25;;;1.09;80.47
4576;BME280;2300;51.874;8.430;2023-03-15T00:23:45;100226.19;;;1.05;80.49
4576;BME280;2300;51.874;8.430;2023-03-15T00:26:11;100225.03;;;1.23;80.17
4576;BME280;2300;51.874;8.430;2023-03-15T00:28:38;100216.06;;;1.22;79.75
4576;BME280;2300;51.874;8.430;2023-03-15T00:31:11;100224.59;;;1.34;79.92
4576;BME280;2300;51.874;8.430;2023-03-15T00:33:39;100211.22;;;1.32;79.75
4576;BME280;2300;51.874;8.430;2023-03-15T00:36:07;100222.50;;;1.36;80.08
4576;BME280;2300;51.874;8.430;2023-03-15T00:38:35;100230.75;;;1.42;80.06
4576;BME280;2300;51.874;8.430;2023-03-15T00:41:06;100232.53;;;1.50;80.30
4576;BME280;2300;51.874;8.430;2023-03-15T00:43:33;100229.84;;;1.50;79.78
4576;BME280;2300;51.874;8.430;2023-03-15T00:46:00;100223.66;;;1.56;79.58
4576;BME280;2300;51.874;8.430;2023-03-15T00:48:27;100236.00;;;1.59;79.57
4576;BME280;2300;51.874;8.430;2023-03-15T00:51:02;100235.31;;;1.57;79.51
4576;BME280;2300;51.874;8.430;2023-03-15T00:53:29;100237.41;;;1.55;78.55
4576;BME280;2300;51.874;8.430;2023-03-15T00:55:55;100241.81;;;1.70;78.77
4576;BME280;2300;51.874;8.430;2023-03-15T00:58:22;100227.03;;;1.58;78.87
4576;BME280;2300;51.874;8.430;2023-03-15T01:00:49;100245.63;;;1.76;78.98
4576;BME280;2300;51.874;8.430;2023-03-15T01:03:16;100260.81;;;1.77;79.10
4576;BME280;2300;51.874;8.430;2023-03-15T01:05:42;100251.50;;;1.79;79.19
4576;BME280;2300;51.874;8.430;2023-03-15T01:08:10;100262.44;;;1.86;78.99
4576;BME280;2300;51.874;8.430;2023-03-15T01:10:36;100258.59;;;1.95;78.82
4576;BME280;2300;51.874;8.430;2023-03-15T01:13:03;100267.94;;;1.92;78.24
4576;BME280;2300;51.874;8.430;2023-03-15T01:15:31;100268.41;;;1.96;78.51
4576;BME280;2300;51.874;8.430;2023-03-15T01:17:57;100265.25;;;2.07;78.53
4576;BME280;2300;51.874;8.430;2023-03-15T01:20:24;100266.16;;;2.00;78.17
4576;BME280;2300;51.874;8.430;2023-03-15T01:22:50;100271.13;;;2.11;78.66
4576;BME280;2300;51.874;8.430;2023-03-15T01:25:18;100268.03;;;2.14;79.25
4576;BME280;2300;51.874;8.430;2023-03-15T01:27:45;100268.69;;;2.16;80.29
4576;BME280;2300;51.874;8.430;2023-03-15T01:30:12;100279.53;;;2.16;81.60
4576;BME280;2300;51.874;8.430;2023-03-15T01:32:38;100282.78;;;2.26;81.81
4576;BME280;2300;51.874;8.430;2023-03-15T01:35:05;100288.94;;;2.20;82.50
4576;BME280;2300;51.874;8.430;2023-03-15T01:37:32;100288.78;;;2.21;82.92
4576;BME280;2300;51.874;8.430;2023-03-15T01:39:59;100290.25;;;2.24;83.82
4576;BME280;2300;51.874;8.430;2023-03-15T01:42:26;100295.78;;;2.16;85.22
4576;BME280;2300;51.874;8.430;2023-03-15T01:44:55;100300.34;;;1.86;87.09
4576;BME280;2300;51.874;8.430;2023-03-15T01:47:24;100297.25;;;1.74;89.02
4576;BME280;2300;51.874;8.430;2023-03-15T01:49:55;100296.56;;;1.58;90.19
4576;BME280;2300;51.874;8.430;2023-03-15T01:52:28;100292.97;;;1.42;91.14
4576;BME280;2300;51.874;8.430;2023-03-15T01:55:02;100305.97;;;1.47;91.44
4576;BME280;2300;51.874;8.430;2023-03-15T01:57:33;100305.66;;;1.42;92.04
4576;BME280;2300;51.874;8.430;2023-03-15T02:00:05;100304.06;;;1.33;92.84
4576;BME280;2300;51.874;8.430;2023-03-15T02:02:37;100295.19;;;1.24;92.71
4576;BME280;2300;51.874;8.430;2023-03-15T02:05:06;100307.63;;;1.11;94.02
4576;BME280;2300;51.874;8.430;2023-03-15T02:07:36;100308.84;;;1.08;95.11
4576;BME280;2300;51.874;8.430;2023-03-15T02:10:06;100306.47;;;1.05;95.31
4576;BME280;2300;51.874;8.430;2023-03-15T02:12:37;100298.72;;;1.02;95.29
4576;BME280;2300;51.874;8.430;2023-03-15T02:15:07;100299.00;;;0.84;96.07
4576;BME280;2300;51.874;8.430;2023-03-15T02:17:37;100306.09;;;0.85;96.57
4576;BME280;2300;51.874;8.430;2023-03-15T02:20:13;100309.47;;;0.87;96.93
4576;BME280;2300;51.874;8.430;2023-03-15T02:22:46;100303.78;;;0.82;96.89
4576;BME280;2300;51.874;8.430;2023-03-15T02:25:21;100298.28;;;0.68;97.38
4576;BME280;2300;51.874;8.430;2023-03-15T02:27:51;100299.25;;;0.75;98.21
4576;BME280;2300;51.874;8.430;2023-03-15T02:30:18;100294.06;;;0.65;98.67
4576;BME280;2300;51.874;8.430;2023-03-15T02:32:45;100285.19;;;0.56;98.80
4576;BME280;2300;51.874;8.430;2023-03-15T02:35:11;100314.31;;;0.69;99.05
4576;BME280;2300;51.874;8.430;2023-03-15T02:37:38;100314.44;;;0.76;99.41
4576;BME280;2300;51.874;8.430;2023-03-15T02:40:15;100313.97;;;0.72;99.51
4576;BME280;2300;51.874;8.430;2023-03-15T02:42:43;100315.16;;;0.70;99.30
4576;BME280;2300;51.874;8.430;2023-03-15T02:45:11;100320.47;;;0.55;99.65
4576;BME280;2300;51.874;8.430;2023-03-15T02:47:38;100306.78;;;0.56;100.00
4576;BME280;2300;51.874;8.430;2023-03-15T02:50:05;100323.25;;;0.70;100.00
4576;BME280;2300;51.874;8.430;2023-03-15T02:52:32;100331.91;;;0.65;100.00
4576;BME280;2300;51.874;8.430;2023-03-15T02:54:59;100322.41;;;0.69;100.00
4576;BME280;2300;51.874;8.430;2023-03-15T02:57:26;100334.66;;;0.57;100.00
4576;BME280;2300;51.874;8.430;2023-03-15T02:59:53;100330.91;;;0.66;100.00
4576;BME280;2300;51.874;8.430;2023-03-15T03:02:22;100310.72;;;0.46;100.00
4576;BME280;2300;51.874;8.430;2023-03-15T03:04:49;100338.94;;;0.74;100.00
4576;BME280;2300;51.874;8.430;2023-03-15T03:07:17;100341.63;;;0.82;100.00
4576;BME280;2300;51.874;8.430;2023-03-15T03:09:43;100347.88;;;0.83;100.00
4576;BME280;2300;51.874;8.430;2023-03-15T03:12:10;100356.94;;;0.90;100.00
4576;BME280;2300;51.874;8.430;2023-03-15T03:14:36;100366.56;;;0.92;99.51
4576;BME280;2300;51.874;8.430;2023-03-15T03:17:03;100371.31;;;0.90;99.99
4576;BME280;2300;51.874;8.430;2023-03-15T03:19:31;100371.47;;;0.89;99.83
4576;BME280;2300;51.874;8.430;2023-03-15T03:21:57;100376.88;;;0.89;99.57
4576;BME280;2300;51.874;8.430;2023-03-15T03:24:24;100376.72;;;0.90;99.77
4576;BME280;2300;51.874;8.430;2023-03-15T03:26:50;100375.63;;;0.99;100.00
4576;BME280;2300;51.874;8.430;2023-03-15T03:29:22;100387.06;;;1.10;99.47
4576;BME280;2300;51.874;8.430;2023-03-15T03:31:48;100392.91;;;0.98;99.74
4576;BME280;2300;51.874;8.430;2023-03-15T03:34:15;100396.69;;;1.12;99.80
4576;BME280;2300;51.874;8.430;2023-03-15T03:36:43;100397.56;;;1.04;99.48
4576;BME280;2300;51.874;8.430;2023-03-15T03:39:09;100368.25;;;0.93;99.34
4576;BME280;2300;51.874;8.430;2023-03-15T03:41:36;100392.63;;;1.16;99.40
4576;BME280;2300;51.874;8.430;2023-03-15T03:44:03;100383.34;;;1.11;99.50
4576;BME280;2300;51.874;8.430;2023-03-15T03:46:29;100410.06;;;1.14;99.69
4576;BME280;2300;51.874;8.430;2023-03-15T03:48:56;100411.69;;;1.23;100.00
4576;BME280;2300;51.874;8.430;2023-03-15T03:51:22;100419.31;;;1.19;99.90
4576;BME280;2300;51.874;8.430;2023-03-15T03:53:50;100425.50;;;1.28;99.84
4576;BME280;2300;51.874;8.430;2023-03-15T03:56:16;100417.75;;;1.25;99.81
4576;BME280;2300;51.874;8.430;2023-03-15T03:58:43;100430.78;;;1.21;99.58
4576;BME280;2300;51.874;8.430;2023-03-15T04:01:09;100430.75;;;1.29;100.00
4576;BME280;2300;51.874;8.430;2023-03-15T04:03:36;100441.81;;;1.42;99.84
4576;BME280;2300;51.874;8.430;2023-03-15T04:06:02;100437.78;;;1.38;99.09
4576;BME280;2300;51.874;8.430;2023-03-15T04:08:29;100442.22;;;1.31;99.55
4576;BME280;2300;51.874;8.430;2023-03-15T04:10:57;100452.19;;;1.31;99.58
4576;BME280;2300;51.874;8.430;2023-03-15T04:13:24;100452.50;;;1.36;99.51
4576;BME280;2300;51.874;8.430;2023-03-15T04:15:51;100453.03;;;1.31;99.82
4576;BME280;2300;51.874;8.430;2023-03-15T04:18:21;100454.06;;;1.30;99.24
4576;BME280;2300;51.874;8.430;2023-03-15T04:20:48;100447.00;;;1.29;99.83
4576;BME280;2300;51.874;8.430;2023-03-15T04:23:20;100428.63;;;1.17;99.57
4576;BME280;2300;51.874;8.430;2023-03-15T04:25:47;100455.28;;;1.28;99.83
4576;BME280;2300;51.874;8.430;2023-03-15T04:28:16;100468.09;;;1.34;100.00
4576;BME280;2300;51.874;8.430;2023-03-15T04:30:43;100441.59;;;1.21;99.90
4576;BME280;2300;51.874;8.430;2023-03-15T04:33:10;100473.00;;;1.30;99.85
4576;BME280;2300;51.874;8.430;2023-03-15T04:35:37;100474.22;;;1.28;100.00
4576;BME280;2300;51.874;8.430;2023-03-15T04:38:04;100474.91;;;1.22;99.55
4576;BME280;2300;51.874;8.430;2023-03-15T04:40:32;100486.44;;;1.16;99.91
4576;BME280;2300;51.874;8.430;2023-03-15T04:43:01;100495.84;;;1.28;99.94
4576;BME280;2300;51.874;8.430;2023-03-15T04:45:30;100492.69;;;1.24;99.93
4576;BME280;2300;51.874;8.430;2023-03-15T04:47:57;100501.13;;;1.21;99.49
4576;BME280;2300;51.874;8.430;2023-03-15T04:50:24;100493.53;;;1.17;99.27
4576;BME280;2300;51.874;8.430;2023-03-15T04:52:50;100502.44;;;1.25;99.35
4576;BME280;2300;51.874;8.430;2023-03-15T04:55:17;100508.38;;;1.29;99.04
4576;BME280;2300;51.874;8.430;2023-03-15T04:57:43;100505.47;;;1.30;98.63
4576;BME280;2300;51.874;8.430;2023-03-15T05:00:11;100503.81;;;1.29;98.70
4576;BME280;2300;51.874;8.430;2023-03-15T05:02:40;100510.53;;;1.33;97.94
4576;BME280;2300;51.874;8.430;2023-03-15T05:05:07;100493.53;;;1.17;98.50
4576;BME280;2300;51.874;8.430;2023-03-15T05:07:34;100509.34;;;1.36;97.79
4576;BME280;2300;51.874;8.430;2023-03-15T05:10:01;100509.47;;;1.42;97.81
4576;BME280;2300;51.874;8.430;2023-03-15T05:12:28;100517.59;;;1.42;97.17
4576;BME280;2300;51.874;8.430;2023-03-15T05:14:55;100518.06;;;1.46;96.99
4576;BME280;2300;51.874;8.430;2023-03-15T05:17:22;100524.56;;;1.37;97.24
4576;BME280;2300;51.874;8.430;2023-03-15T05:19:49;100532.44;;;1.46;97.47
4576;BME280;2300;51.874;8.430;2023-03-15T05:22:16;100524.03;;;1.41;96.76
4576;BME280;2300;51.874;8.430;2023-03-15T05:24:43;100526.19;;;1.46;96.79
4576;BME280;2300;51.874;8.430;2023-03-15T05:27:10;100537.56;;;1.41;96.27
4576;BME280;2300;51.874;8.430;2023-03-15T05:29:37;100538.09;;;1.37;96.19
4576;BME280;2300;51.874;8.430;2023-03-15T05:32:04;100536.75;;;1.33;96.46
4576;BME280;2300;51.874;8.430;2023-03-15T05:34:31;100532.94;;;1.19;96.14
4576;BME280;2300;51.874;8.430;2023-03-15T05:36:59;100539.16;;;1.28;95.86
4576;BME280;2300;51.874;8.430;2023-03-15T05:39:25;100541.53;;;1.23;96.26
4576;BME280;2300;51.874;8.430;2023-03-15T05:41:52;100538.53;;;1.18;96.01
4576;BME280;2300;51.874;8.430;2023-03-15T05:44:18;100550.19;;;1.18;96.34
4576;BME280;2300;51.874;8.430;2023-03-15T05:46:45;100549.81;;;1.21;96.35
4576;BME280;2300;51.874;8.430;2023-03-15T05:49:11;100556.94;;;1.22;96.36
4576;BME280;2300;51.874;8.430;2023-03-15T05:51:38;100559.16;;;1.19;96.48
4576;BME280;2300;51.874;8.430;2023-03-15T05:54:05;100552.69;;;1.20;96.39
4576;BME280;2300;51.874;8.430;2023-03-15T05:56:32;100583.44;;;1.35;96.06
4576;BME280;2300;51.874;8.430;2023-03-15T05:58:58;100597.66;;;1.29;96.21
4576;BME280;2300;51.874;8.430;2023-03-15T06:01:27;100598.19;;;1.24;96.85
4576;BME280;2300;51.874;8.430;2023-03-15T06:03:53;100600.69;;;1.34;96.81
4576;BME280;2300;51.874;8.430;2023-03-15T06:06:20;100608.13;;;1.40;96.37
4576;BME280;2300;51.874;8.430;2023-03-15T06:08:46;100614.53;;;1.31;96.99
4576;BME280;2300;51.874;8.430;2023-03-15T06:11:14;100624.00;;;1.43;96.46
4576;BME280;2300;51.874;8.430;2023-03-15T06:13:40;100631.94;;;1.44;96.83
4576;BME280;2300;51.874;8.430;2023-03-15T06:16:07;100633.44;;;1.47;96.56
4576;BME280;2300;51.874;8.430;2023-03-15T06:18:33;100643.94;;;1.42;96.29
4576;BME280;2300;51.874;8.430;2023-03-15T06:21:00;100647.44;;;1.50;96.42
4576;BME280;2300;51.874;8.430;2023-03-15T06:23:26;100649.72;;;1.39;96.17
4576;BME280;2300;51.874;8.430;2023-03-15T06:25:53;100658.81;;;1.46;96.16
4576;BME280;2300;51.874;8.430;2023-03-15T06:28:20;100650.00;;;1.52;96.84
4576;BME280;2300;51.874;8.430;2023-03-15T06:30:47;100658.28;;;1.50;96.84
4576;BME280;2300;51.874;8.430;2023-03-15T06:33:13;100664.91;;;1.48;96.49
4576;BME280;2300;51.874;8.430;2023-03-15T06:35:40;100668.13;;;1.43;96.37
4576;BME280;2300;51.874;8.430;2023-03-15T06:38:07;100674.53;;;1.50;96.64
4576;BME280;2300;51.874;8.430;2023-03-15T06:40:33;100666.44;;;1.42;96.48
4576;BME280;2300;51.874;8.430;2023-03-15T06:43:00;100670.31;;;1.48;96.39
4576;BME280;2300;51.874;8.430;2023-03-15T06:45:32;100669.94;;;1.51;96.24
4576;BME280;2300;51.874;8.430;2023-03-15T06:47:58;100672.97;;;1.56;95.81
4576;BME280;2300;51.874;8.430;2023-03-15T06:50:25;100671.75;;;1.75;95.81
4576;BME280;2300;51.874;8.430;2023-03-15T06:52:51;100679.88;;;1.67;94.88
4576;BME280;2300;51.874;8.430;2023-03-15T06:55:17;100694.19;;;1.91;95.26
4576;BME280;2300;51.874;8.430;2023-03-15T06:57:44;100695.00;;;1.92;94.55
4576;BME280;2300;51.874;8.430;2023-03-15T07:00:11;100698.88;;;1.98;94.45
4576;BME280;2300;51.874;8.430;2023-03-15T07:02:39;100687.84;;;2.07;93.68
4576;BME280;2300;51.874;8.430;2023-03-15T07:05:07;100709.16;;;2.10;93.49
4576;BME280;2300;51.874;8.430;2023-03-15T07:07:33;100700.84;;;2.12;93.26
4576;BME280;2300;51.874;8.430;2023-03-15T07:10:00;100719.38;;;1.92;93.06
4576;BME280;2300;51.874;8.430;2023-03-15T07:12:26;100720.97;;;1.78;93.68
4576;BME280;2300;51.874;8.430;2023-03-15T07:14:53;100723.84;;;1.85;93.81
4576;BME280;2300;51.874;8.430;2023-03-15T07:17:19;100731.38;;;1.98;93.62
4576;BME280;2300;51.874;8.430;2023-03-15T07:19:47;100739.75;;;2.19;93.88
4576;BME280;2300;51.874;8.430;2023-03-15T07:22:14;100725.47;;;2.33;93.62
4576;BME280;2300;51.874;8.430;2023-03-15T07:24:40;100734.22;;;2.43;93.28
4576;BME280;2300;51.874;8.430;2023-03-15T07:27:10;100746.00;;;2.50;92.50
4576;BME280;2300;51.874;8.430;2023-03-15T07:29:37;100752.72;;;2.62;92.24
4576;BME280;2300;51.874;8.430;2023-03-15T07:32:04;100754.41;;;2.63;91.78
4576;BME280;2300;51.874;8.430;2023-03-15T07:34:30;100745.59;;;2.61;92.23
4576;BME280;2300;51.874;8.430;2023-03-15T07:36:58;100759.94;;;2.70;91.73
4576;BME280;2300;51.874;8.430;2023-03-15T07:39:25;100767.50;;;2.83;91.15
4576;BME280;2300;51.874;8.430;2023-03-15T07:41:53;100763.47;;;2.78;91.22
4576;BME280;2300;51.874;8.430;2023-03-15T07:44:19;100766.72;;;2.97;91.39
4576;BME280;2300;51.874;8.430;2023-03-15T07:46:46;100762.84;;;3.14;91.00
4576;BME280;2300;51.874;8.430;2023-03-15T07:49:12;100779.50;;;3.11;89.94
4576;BME280;2300;51.874;8.430;2023-03-15T07:51:39;100788.91;;;3.00;89.97
4576;BME280;2300;51.874;8.430;2023-03-15T07:54:08;100777.44;;;3.13;88.14
4576;BME280;2300;51.874;8.430;2023-03-15T07:56:35;100783.16;;;3.18;88.80
4576;BME280;2300;51.874;8.430;2023-03-15T07:59:01;100777.97;;;3.31;88.61
4576;BME280;2300;51.874;8.430;2023-03-15T08:01:28;100775.72;;;3.35;87.38
4576;BME280;2300;51.874;8.430;2023-03-15T08:03:54;100780.91;;;3.44;86.16
4576;BME280;2300;51.874;8.430;2023-03-15T08:06:21;100787.44;;;3.35;86.60
4576;BME280;2300;51.874;8.430;2023-03-15T08:08:47;100785.91;;;3.33;86.73
4576;BME280;2300;51.874;8.430;2023-03-15T08:11:15;100788.59;;;3.55;86.22
4576;BME280;2300;51.874;8.430;2023-03-15T08:13:41;100797.50;;;3.79;85.41
4576;BME280;2300;51.874;8.430;2023-03-15T08:16:08;100804.75;;;3.86;85.03
4576;BME280;2300;51.874;8.430;2023-03-15T08:18:34;100809.28;;;3.94;84.38
4576;BME280;2300;51.874;8.430;2023-03-15T08:21:01;100815.97;;;3.69;83.23
4576;BME280;2300;51.874;8.430;2023-03-15T08:23:28;100818.78;;;3.75;83.28
4576;BME280;2300;51.874;8.430;2023-03-15T08:25:55;100828.75;;;3.83;82.98
4576;BME280;2300;51.874;8.430;2023-03-15T08:28:23;100841.03;;;4.08;83.28
4576;BME280;2300;51.874;8.430;2023-03-15T08:30:50;100834.84;;;4.29;84.26
4576;BME280;2300;51.874;8.430;2023-03-15T08:33:16;100834.75;;;4.52;83.00
4576;BME280;2300;51.874;8.430;2023-03-15T08:35:43;100841.34;;;4.42;82.04
4576;BME280;2300;51.874;8.430;2023-03-15T08:38:09;100842.56;;;4.40;82.46
4576;BME280;2300;51.874;8.430;2023-03-15T08:40:35;100846.00;;;4.19;81.34
4576;BME280;2300;51.874;8.430;2023-03-15T08:43:02;100848.06;;;4.17;83.32
4576;BME280;2300;51.874;8.430;2023-03-15T08:45:30;100866.63;;;4.28;83.24
4576;BME280;2300;51.874;8.430;2023-03-15T08:47:57;100867.59;;;4.35;82.93
4576;BME280;2300;51.874;8.430;2023-03-15T08:50:25;100874.13;;;4.26;81.31
4576;BME280;2300;51.874;8.430;2023-03-15T08:52:52;100873.69;;;4.52;81.67
4576;BME280;2300;51.874;8.430;2023-03-15T08:55:19;100879.59;;;4.56;82.31
4576;BME280;2300;51.874;8.430;2023-03-15T08:57:46;100880.16;;;4.66;82.04
4576;BME280;2300;51.874;8.430;2023-03-15T09:00:13;100879.69;;;4.77;82.58
4576;BME280;2300;51.874;8.430;2023-03-15T09:02:44;100886.16;;;4.46;81.31
4576;BME280;2300;51.874;8.430;2023-03-15T09:05:12;100891.00;;;4.36;81.06
4576;BME280;2300;51.874;8.430;2023-03-15T09:07:40;100901.34;;;4.41;81.14
4576;BME280;2300;51.874;8.430;2023-03-15T09:10:07;100903.88;;;4.42;80.66
4576;BME280;2300;51.874;8.430;2023-03-15T09:12:34;100908.28;;;4.43;82.32
4576;BME280;2300;51.874;8.430;2023-03-15T09:15:00;100902.38;;;4.69;81.81
4576;BME280;2300;51.874;8.430;2023-03-15T09:17:26;100882.22;;;4.64;79.97
4576;BME280;2300;51.874;8.430;2023-03-15T09:19:55;100911.28;;;4.63;79.95
4576;BME280;2300;51.874;8.430;2023-03-15T09:22:21;100914.25;;;4.83;80.04
4576;BME280;2300;51.874;8.430;2023-03-15T09:24:48;100912.22;;;5.21;80.63
4576;BME280;2300;51.874;8.430;2023-03-15T09:27:14;100918.34;;;5.23;79.36
4576;BME280;2300;51.874;8.430;2023-03-15T09:29:41;100924.63;;;5.45;80.37
4576;BME280;2300;51.874;8.430;2023-03-15T09:32:08;100922.03;;;5.79;79.07
4576;BME280;2300;51.874;8.430;2023-03-15T09:34:35;100928.44;;;5.93;77.34
4576;BME280;2300;51.874;8.430;2023-03-15T09:37:04;100922.63;;;6.24;77.48
4576;BME280;2300;51.874;8.430;2023-03-15T09:39:30;100923.22;;;6.19;77.02
4576;BME280;2300;51.874;8.430;2023-03-15T09:42:00;100922.00;;;6.28;78.46
4576;BME280;2300;51.874;8.430;2023-03-15T09:44:39;100929.72;;;6.80;76.07
4576;BME280;2300;51.874;8.430;2023-03-15T09:47:22;100935.94;;;6.74;73.50
4576;BME280;2300;51.874;8.430;2023-03-15T09:49:52;100928.81;;;6.73;75.08
4576;BME280;2300;51.874;8.430;2023-03-15T09:52:31;100938.06;;;6.72;74.61
4576;BME280;2300;51.874;8.430;2023-03-15T09:55:04;100945.97;;;6.95;74.62
4576;BME280;2300;51.874;8.430;2023-03-15T09:57:38;100943.38;;;6.80;74.24
4576;BME280;2300;51.874;8.430;2023-03-15T10:00:11;100943.38;;;7.28;73.81
4576;BME280;2300;51.874;8.430;2023-03-15T10:02:44;100929.16;;;7.52;73.69
4576;BME280;2300;51.874;8.430;2023-03-15T10:05:16;100942.06;;;8.24;73.29
4576;BME280;2300;51.874;8.430;2023-03-15T10:07:45;100942.44;;;8.47;71.62
4576;BME280;2300;51.874;8.430;2023-03-15T10:10:17;100937.38;;;8.51;69.38
4576;BME280;2300;51.874;8.430;2023-03-15T10:12:49;100935.47;;;7.72;70.06
4576;BME280;2300;51.874;8.430;2023-03-15T10:15:34;100934.22;;;6.94;70.66
4576;BME280;2300;51.874;8.430;2023-03-15T10:18:22;100927.38;;;6.77;71.21
4576;BME280;2300;51.874;8.430;2023-03-15T10:20:56;100927.56;;;6.76;69.74
4576;BME280;2300;51.874;8.430;2023-03-15T10:23:34;100923.59;;;6.78;70.94
4576;BME280;2300;51.874;8.430;2023-03-15T10:26:03;100923.72;;;6.63;70.71
4576;BME280;2300;51.874;8.430;2023-03-15T10:28:31;100917.19;;;6.58;71.34
4576;BME280;2300;51.874;8.430;2023-03-15T10:30:59;100918.75;;;6.39;73.10
4576;BME280;2300;51.874;8.430;2023-03-15T10:33:32;100918.47;;;6.62;71.40
4576;BME280;2300;51.874;8.430;2023-03-15T10:36:00;100936.25;;;6.86;71.21
4576;BME280;2300;51.874;8.430;2023-03-15T10:38:28;100928.41;;;7.17;71.24
4576;BME280;2300;51.874;8.430;2023-03-15T10:40:57;100930.47;;;7.89;70.14
4576;BME280;2300;51.874;8.430;2023-03-15T10:43:25;100927.75;;;8.02;69.46
4576;BME280;2300;51.874;8.430;2023-03-15T10:45:58;100931.13;;;8.17;67.39
4576;BME280;2300;51.874;8.430;2023-03-15T10:48:26;100936.16;;;8.27;67.33
4576;BME280;2300;51.874;8.430;2023-03-15T10:50:53;100938.22;;;8.71;68.51
4576;BME280;2300;51.874;8.430;2023-03-15T10:53:19;100939.06;;;8.71;64.98
4576;BME280;2300;51.874;8.430;2023-03-15T10:55:48;100938.59;;;8.94;63.93
4576;BME280;2300;51.874;8.430;2023-03-15T10:58:20;100943.47;;;8.72;63.68
4576;BME280;2300;51.874;8.430;2023-03-15T11:00:54;100930.69;;;8.14;63.05
4576;BME280;2300;51.874;8.430;2023-03-15T11:03:24;100934.03;;;7.89;63.03
4576;BME280;2300;51.874;8.430;2023-03-15T11:05:52;100923.22;;;7.42;64.11
4576;BME280;2300;51.874;8.430;2023-03-15T11:08:21;100933.44;;;7.87;63.18
4576;BME280;2300;51.874;8.430;2023-03-15T11:10:56;100937.41;;;8.24;64.18
4576;BME280;2300;51.874;8.430;2023-03-15T11:13:24;100945.78;;;8.62;61.49
4576;BME280;2300;51.874;8.430;2023-03-15T11:15:59;100946.94;;;9.12;61.57
4576;BME280;2300;51.874;8.430;2023-03-15T11:18:30;100944.47;;;8.98;59.99
4576;BME280;2300;51.874;8.430;2023-03-15T11:20:58;100948.75;;;8.67;59.08
4576;BME280;2300;51.874;8.430;2023-03-15T11:23:28;100950.69;;;8.21;58.94
4576;BME280;2300;51.874;8.430;2023-03-15T11:25:59;100947.94;;;7.95;59.07
4576;BME280;2300;51.874;8.430;2023-03-15T11:28:27;100954.66;;;7.99;59.57
4576;BME280;2300;51.874;8.430;2023-03-15T11:30:54;100959.72;;;8.21;60.54
4576;BME280;2300;51.874;8.430;2023-03-15T11:33:31;100968.06;;;8.92;57.92
4576;BME280;2300;51.874;8.430;2023-03-15T11:36:06;100969.59;;;9.39;58.17
4576;BME280;2300;51.874;8.430;2023-03-15T11:38:38;100972.69;;;9.49;59.07
4576;BME280;2300;51.874;8.430;2023-03-15T11:41:15;100961.50;;;9.57;57.03
4576;BME280;2300;51.874;8.430;2023-03-15T11:43:49;100963.13;;;9.65;56.93
4576;BME280;2300;51.874;8.430;2023-03-15T11:46:24;100964.94;;;9.78;56.91
4576;BME280;2300;51.874;8.430;2023-03-15T11:48:59;100964.72;;;9.48;56.56
4576;BME280;2300;51.874;8.430;2023-03-15T11:51:27;100967.88;;;9.45;56.81
4576;BME280;2300;51.874;8.430;2023-03-15T11:54:03;100968.63;;;9.14;55.69
4576;BME280;2300;51.874;8.430;2023-03-15T11:56:50;100957.19;;;8.59;57.93
4576;BME280;2300;51.874;8.430;2023-03-15T11:59:18;100972.75;;;8.46;59.16
4576;BME280;2300;51.874;8.430;2023-03-15T12:01:46;100971.09;;;8.18;56.03
4576;BME280;2300;51.874;8.430;2023-03-15T12:04:48;100968.13;;;8.20;56.66
4576;BME280;2300;51.874;8.430;2023-03-15T12:10:31;100976.44;;;9.17;57.15
4576;BME280;2300;51.874;8.430;2023-03-15T12:13:14;100978.72;;;9.65;55.68
4576;BME280;2300;51.874;8.430;2023-03-15T12:15:45;100975.41;;;9.56;55.44
4576;BME280;2300;51.874;8.430;2023-03-15T12:18:24;100976.13;;;8.81;54.50
4576;BME280;2300;51.874;8.430;2023-03-15T12:21:04;100971.91;;;8.19;55.94
4576;BME280;2300;51.874;8.430;2023-03-15T12:23:38;100978.25;;;8.65;57.27
4576;BME280;2300;51.874;8.430;2023-03-15T12:26:08;100984.75;;;8.78;53.33
4576;BME280;2300;51.874;8.430;2023-03-15T12:28:39;100985.81;;;8.63;54.43
4576;BME280;2300;51.874;8.430;2023-03-15T12:31:10;100991.91;;;8.52;54.11
4576;BME280;2300;51.874;8.430;2023-03-15T12:33:46;100994.66;;;8.06;55.80
4576;BME280;2300;51.874;8.430;2023-03-15T12:36:20;100992.53;;;7.82;54.32
4576;BME280;2300;51.874;8.430;2023-03-15T12:38:58;100996.31;;;7.94;53.15
4576;BME280;2300;51.874;8.430;2023-03-15T12:41:37;100993.75;;;7.66;52.43
4576;BME280;2300;51.874;8.430;2023-03-15T12:44:25;100982.72;;;7.40;53.06
4576;BME280;2300;51.874;8.430;2023-03-15T12:47:02;100980.88;;;7.06;54.03
4576;BME280;2300;51.874;8.430;2023-03-15T12:49:40;100972.63;;;7.47;54.54
4576;BME280;2300;51.874;8.430;2023-03-15T12:52:33;100983.50;;;8.21;54.18
4576;BME280;2300;51.874;8.430;2023-03-15T12:55:11;100987.28;;;8.72;53.71
4576;BME280;2300;51.874;8.430;2023-03-15T12:57:46;100988.72;;;8.95;52.35
4576;BME280;2300;51.874;8.430;2023-03-15T13:00:16;100993.88;;;9.29;52.54
4576;BME280;2300;51.874;8.430;2023-03-15T13:02:45;100988.59;;;9.34;52.05
4576;BME280;2300;51.874;8.430;2023-03-15T13:05:22;100973.72;;;9.04;51.75
4576;BME280;2300;51.874;8.430;2023-03-15T13:07:56;100983.84;;;8.97;50.28
4576;BME280;2300;51.874;8.430;2023-03-15T13:10:55;100973.19;;;8.36;50.09
4576;BME280;2300;51.874;8.430;2023-03-15T13:13:53;100975.50;;;8.00;51.65
4576;BME280;2300;51.874;8.430;2023-03-15T13:16:28;100975.25;;;7.75;52.79
4576;BME280;2300;51.874;8.430;2023-03-15T13:19:05;100983.91;;;7.92;53.79
4576;BME280;2300;51.874;8.430;2023-03-15T13:21:47;100981.81;;;8.46;55.21
4576;BME280;2300;51.874;8.430;2023-03-15T13:24:22;100982.84;;;8.91;53.84
4576;BME280;2300;51.874;8.430;2023-03-15T13:26:55;100975.84;;;9.02;52.91
4576;BME280;2300;51.874;8.430;2023-03-15T13:29:26;100982.72;;;9.24;51.75
4576;BME280;2300;51.874;8.430;2023-03-15T13:32:10;100980.06;;;9.55;52.43
4576;BME280;2300;51.874;8.430;2023-03-15T13:34:38;100978.47;;;9.28;50.57
4576;BME280;2300;51.874;8.430;2023-03-15T13:37:12;100966.72;;;9.21;50.95